createdAt,value
2019-04-04T00:01:10.579Z,18.53
2019-04-04T00:03:41.858Z,20.87
2019-04-04T00:06:13.222Z,18.87
2019-04-04T00:08:44.615Z,18.42
2019-04-04T00:11:15.925Z,19.50
2019-04-04T00:13:47.270Z,19.53
2019-04-04T00:16:18.573Z,20.47
2019-04-04T00:18:49.906Z,21.37
2019-04-04T00:21:21.201Z,19.25
2019-04-04T00:23:52.506Z,20.80
2019-04-04T00:26:23.814Z,21.30
2019-04-04T00:28:55.165Z,22.00
2019-04-04T00:31:26.602Z,21.17
2019-04-04T00:33:57.978Z,21.27
2019-04-04T00:36:29.339Z,19.60
2019-04-04T00:39:00.924Z,22.45
2019-04-04T00:41:33.792Z,22.87
2019-04-04T00:44:06.739Z,22.83
2019-04-04T00:46:38.077Z,22.37
2019-04-04T00:49:10.959Z,22.87
2019-04-04T00:51:42.429Z,22.57
2019-04-04T00:54:14.011Z,22.10
2019-04-04T00:56:46.888Z,22.97
2019-04-04T00:59:18.961Z,23.93
2019-04-04T01:01:50.298Z,24.77
2019-04-04T01:04:21.532Z,22.13
2019-04-04T01:06:52.770Z,20.07
2019-04-04T01:09:24.140Z,20.70
2019-04-04T01:11:55.496Z,21.37
2019-04-04T01:14:27.161Z,20.17
2019-04-04T01:16:59.953Z,22.73
2019-04-04T01:19:31.494Z,20.73
2019-04-04T01:22:02.744Z,19.57
2019-04-04T01:24:34.229Z,18.40
2019-04-04T01:27:06.321Z,20.35
2019-04-04T01:29:40.923Z,16.10
2019-04-04T01:32:12.466Z,20.00
2019-04-04T01:34:43.738Z,19.20
2019-04-04T01:37:15.160Z,21.77
2019-04-04T01:39:46.508Z,22.43
2019-04-04T01:42:17.805Z,21.37
2019-04-04T01:44:49.099Z,18.33
2019-04-04T01:47:20.395Z,22.47
2019-04-04T01:49:52.661Z,22.10
2019-04-04T01:52:24.028Z,20.33
2019-04-04T01:54:55.374Z,21.37
2019-04-04T01:57:26.631Z,21.17
2019-04-04T01:59:58.058Z,22.15
2019-04-04T02:02:29.355Z,20.97
2019-04-04T02:05:00.640Z,20.20
2019-04-04T02:07:31.955Z,20.90
2019-04-04T02:10:05.304Z,21.43
2019-04-04T02:12:38.513Z,21.97
2019-04-04T02:15:13.771Z,17.07
2019-04-04T02:17:45.097Z,23.13
2019-04-04T02:20:16.513Z,19.27
2019-04-04T02:22:47.883Z,21.75
2019-04-04T02:25:19.251Z,21.80
2019-04-04T02:27:50.560Z,23.50
2019-04-04T02:30:21.834Z,21.73
2019-04-04T02:32:53.185Z,22.57
2019-04-04T02:35:24.554Z,17.47
2019-04-04T02:37:56.197Z,20.17
2019-04-04T02:40:27.580Z,18.30
2019-04-04T02:42:58.876Z,22.83
2019-04-04T02:45:30.183Z,20.63
2019-04-04T02:48:01.514Z,16.87
2019-04-04T02:50:35.562Z,20.17
2019-04-04T02:53:06.735Z,19.17
2019-04-04T02:55:41.610Z,18.00
2019-04-04T02:58:15.253Z,20.13
2019-04-04T03:00:46.857Z,19.47
2019-04-04T03:03:18.276Z,18.50
2019-04-04T03:05:51.972Z,19.73
2019-04-04T03:08:22.899Z,17.80
2019-04-04T03:10:54.334Z,18.70
2019-04-04T03:13:25.679Z,18.57
2019-04-04T03:15:57.048Z,19.17
2019-04-04T03:18:28.332Z,18.40
2019-04-04T03:20:59.607Z,17.40
2019-04-04T03:23:33.863Z,19.20
2019-04-04T03:26:03.921Z,18.97
2019-04-04T03:28:35.369Z,20.90
2019-04-04T03:31:06.701Z,18.53
2019-04-04T03:33:38.259Z,18.57
2019-04-04T03:36:10.628Z,19.37
2019-04-04T03:38:47.155Z,20.20
2019-04-04T03:41:16.811Z,16.40
2019-04-04T03:43:49.100Z,19.33
2019-04-04T03:46:20.781Z,21.70
2019-04-04T03:48:52.191Z,23.17
2019-04-04T03:51:25.956Z,20.88
2019-04-04T03:53:59.125Z,23.30
2019-04-04T03:56:33.254Z,16.37
2019-04-04T03:59:03.750Z,21.83
2019-04-04T04:01:35.528Z,21.00
2019-04-04T04:04:07.111Z,20.43
2019-04-04T04:06:41.299Z,21.93
2019-04-04T04:09:11.447Z,23.73
2019-04-04T04:11:42.921Z,24.07
2019-04-04T04:14:15.297Z,22.65
2019-04-04T04:16:48.274Z,21.50
2019-04-04T04:19:24.048Z,17.50
2019-04-04T04:21:56.860Z,20.17
2019-04-04T04:24:29.533Z,23.20
2019-04-04T04:27:01.402Z,23.77
2019-04-04T04:29:34.320Z,24.47
2019-04-04T04:32:05.732Z,26.37
2019-04-04T04:34:37.212Z,24.43
2019-04-04T04:37:08.681Z,26.10
2019-04-04T04:39:41.438Z,25.57
2019-04-04T04:42:13.021Z,25.17
2019-04-04T04:44:44.252Z,26.30
2019-04-04T04:47:15.617Z,25.55
2019-04-04T04:49:46.922Z,23.40
2019-04-04T04:52:19.167Z,25.40
2019-04-04T04:54:52.335Z,26.63
2019-04-04T04:57:29.911Z,20.43
2019-04-04T04:59:56.565Z,24.40
2019-04-04T05:02:27.920Z,20.23
2019-04-04T05:04:59.391Z,22.23
2019-04-04T05:07:31.471Z,23.13
2019-04-04T05:10:02.843Z,26.93
2019-04-04T05:12:34.245Z,26.17
2019-04-04T05:15:09.458Z,25.57
2019-04-04T05:17:42.092Z,28.15
2019-04-04T05:20:14.068Z,25.83
2019-04-04T05:22:45.600Z,25.53
2019-04-04T05:25:16.813Z,28.03
2019-04-04T05:27:48.132Z,21.90
2019-04-04T05:30:20.435Z,26.47
2019-04-04T05:32:56.042Z,25.13
2019-04-04T05:35:25.141Z,28.23
2019-04-04T05:37:56.448Z,27.37
2019-04-04T05:40:30.506Z,26.77
2019-04-04T05:43:04.792Z,29.77
2019-04-04T05:45:36.322Z,32.03
2019-04-04T05:48:07.626Z,29.87
2019-04-04T05:50:38.883Z,25.87
2019-04-04T05:53:10.990Z,30.30
2019-04-04T05:55:42.484Z,27.60
2019-04-04T05:58:15.044Z,29.23
2019-04-04T06:00:47.156Z,28.93
2019-04-04T06:03:18.528Z,28.17
2019-04-04T06:05:49.967Z,29.20
2019-04-04T06:08:21.492Z,32.67
2019-04-04T06:10:53.766Z,30.43
2019-04-04T06:13:26.958Z,30.12
2019-04-04T06:16:00.124Z,29.17
2019-04-04T06:18:31.410Z,27.20
2019-04-04T06:21:02.753Z,31.03
2019-04-04T06:23:37.187Z,27.13
2019-04-04T06:26:08.531Z,19.03
2019-04-04T06:28:39.912Z,17.47
2019-04-04T06:31:11.207Z,12.98
2019-04-04T06:33:42.487Z,10.27
2019-04-04T06:36:13.769Z,10.70
2019-04-04T06:39:00.197Z,11.00
2019-04-04T06:41:32.395Z,9.70
2019-04-04T06:44:04.247Z,12.73
2019-04-04T06:46:35.542Z,11.03
2019-04-04T06:49:06.887Z,10.30
2019-04-04T06:51:39.300Z,11.73
2019-04-04T06:54:11.640Z,10.73
2019-04-04T06:56:43.836Z,11.67
2019-04-04T06:59:15.151Z,8.20
2019-04-04T07:01:46.509Z,9.50
2019-04-04T07:04:17.846Z,10.07
2019-04-04T07:06:49.144Z,10.67
2019-04-04T07:09:20.394Z,9.17
2019-04-04T07:11:51.611Z,9.93
2019-04-04T07:14:23.038Z,10.53
2019-04-04T07:16:54.413Z,9.03
2019-04-04T07:19:25.797Z,9.43
2019-04-04T07:21:57.009Z,8.70
2019-04-04T07:24:29.035Z,9.80
2019-04-04T07:27:01.344Z,9.97
2019-04-04T07:29:32.599Z,7.93
2019-04-04T07:32:05.166Z,8.73
2019-04-04T07:34:36.503Z,9.27
2019-04-04T07:37:07.731Z,9.57
2019-04-04T07:39:39.072Z,10.10
2019-04-04T07:42:10.357Z,6.50
2019-04-04T07:44:41.634Z,6.57
2019-04-04T07:47:15.772Z,8.10
2019-04-04T07:49:46.903Z,5.43
2019-04-04T07:52:18.131Z,5.80
2019-04-04T07:54:49.407Z,4.97
2019-04-04T07:57:20.615Z,5.30
2019-04-04T07:59:52.021Z,4.63
2019-04-04T08:02:23.348Z,4.57
2019-04-04T08:04:54.701Z,5.23
2019-04-04T08:07:26.088Z,4.53
2019-04-04T08:09:57.296Z,5.17
2019-04-04T08:12:28.616Z,4.00
2019-04-04T08:15:00.031Z,3.83
2019-04-04T08:17:31.306Z,3.80
2019-04-04T08:20:02.590Z,5.50
2019-04-04T08:22:34.000Z,5.20
2019-04-04T08:25:06.005Z,4.20
2019-04-04T08:27:37.225Z,5.57
2019-04-04T08:30:09.211Z,4.73
2019-04-04T08:32:40.599Z,3.40
2019-04-04T08:35:12.199Z,5.40
2019-04-04T08:37:43.466Z,7.17
2019-04-04T08:40:14.888Z,3.67
2019-04-04T08:42:46.245Z,5.37
2019-04-04T08:45:17.607Z,3.67
2019-04-04T08:47:48.857Z,3.90
2019-04-04T08:50:20.085Z,4.17
2019-04-04T08:52:52.458Z,3.90
2019-04-04T08:55:23.684Z,5.67
2019-04-04T08:57:54.941Z,6.90
2019-04-04T09:00:26.157Z,3.90
2019-04-04T09:02:57.527Z,3.07
2019-04-04T09:05:28.745Z,3.63
2019-04-04T09:08:00.035Z,3.80
2019-04-04T09:10:31.241Z,3.37
2019-04-04T09:13:02.508Z,5.10
2019-04-04T09:15:34.965Z,5.20
2019-04-04T09:18:06.398Z,4.23
2019-04-04T09:20:37.612Z,3.90
2019-04-04T09:23:10.088Z,3.80
2019-04-04T09:25:41.411Z,3.63
2019-04-04T09:28:12.893Z,4.67
2019-04-04T09:30:44.173Z,5.03
2019-04-04T09:33:15.589Z,5.67
2019-04-04T09:35:46.947Z,5.77
2019-04-04T09:38:18.347Z,5.70
2019-04-04T09:40:49.642Z,6.33
2019-04-04T09:43:20.861Z,6.10
2019-04-04T09:45:52.171Z,6.43
2019-04-04T09:48:23.450Z,5.50
2019-04-04T09:50:54.806Z,9.13
2019-04-04T09:53:26.121Z,7.23
2019-04-04T09:55:57.501Z,6.37
2019-04-04T09:58:28.865Z,6.50
2019-04-04T10:01:00.339Z,6.20
2019-04-04T10:03:31.767Z,6.27
2019-04-04T10:06:03.268Z,7.30
2019-04-04T10:08:34.644Z,5.87
2019-04-04T10:11:06.159Z,4.77
2019-04-04T10:13:37.619Z,4.47
2019-04-04T10:16:09.215Z,5.03
2019-04-04T10:18:40.571Z,4.27
2019-04-04T10:21:12.577Z,6.70
2019-04-04T10:23:44.023Z,17.03
2019-04-04T10:26:15.490Z,10.83
2019-04-04T10:28:46.884Z,5.60
2019-04-04T10:31:18.215Z,8.03
2019-04-04T10:33:49.534Z,10.53
2019-04-04T10:36:21.038Z,8.80
2019-04-04T10:38:52.329Z,22.53
2019-04-04T10:41:23.691Z,18.27
2019-04-04T10:43:54.951Z,9.55
2019-04-04T10:46:26.376Z,5.90
2019-04-04T10:48:57.917Z,6.37
2019-04-04T10:51:29.311Z,4.97
2019-04-04T10:54:00.595Z,6.13
2019-04-04T10:56:32.823Z,5.70
2019-04-04T10:59:04.329Z,4.80
2019-04-04T11:01:35.549Z,5.35
2019-04-04T11:04:06.948Z,7.20
2019-04-04T11:06:38.303Z,5.10
2019-04-04T11:09:09.904Z,4.37
2019-04-04T11:11:41.189Z,5.00
2019-04-04T11:14:12.682Z,3.37
2019-04-04T11:16:44.117Z,7.87
2019-04-04T11:19:15.339Z,4.67
2019-04-04T11:21:46.624Z,2.65
2019-04-04T11:24:18.030Z,3.47
2019-04-04T11:26:49.332Z,2.52
2019-04-04T11:29:21.506Z,2.60
2019-04-04T11:31:52.842Z,2.75
2019-04-04T11:34:24.203Z,2.37
2019-04-04T11:36:55.409Z,1.52
2019-04-04T11:39:26.745Z,1.77
2019-04-04T11:41:57.965Z,2.42
2019-04-04T11:44:30.819Z,3.30
2019-04-04T11:47:02.263Z,1.60
2019-04-04T11:49:34.666Z,1.35
2019-04-04T11:52:06.050Z,1.77
2019-04-04T11:54:40.112Z,1.40
2019-04-04T11:57:12.252Z,2.30
2019-04-04T11:59:43.531Z,1.40
2019-04-04T12:02:14.745Z,1.35
2019-04-04T12:04:46.079Z,2.27
2019-04-04T12:07:17.374Z,1.92
2019-04-04T12:09:48.768Z,2.20
2019-04-04T12:12:20.096Z,1.57
2019-04-04T12:14:51.454Z,2.08
2019-04-04T12:17:23.987Z,1.75
2019-04-04T12:19:55.227Z,1.85
2019-04-04T12:22:27.131Z,1.60
2019-04-04T12:24:58.905Z,1.60
2019-04-04T12:27:31.864Z,1.40
2019-04-04T12:30:03.338Z,1.92
2019-04-04T12:32:34.702Z,1.30
2019-04-04T12:35:06.732Z,1.00
2019-04-04T12:37:38.150Z,1.40
2019-04-04T12:40:19.671Z,3.65
2019-04-04T12:42:43.187Z,2.98
2019-04-04T12:45:16.241Z,1.75
2019-04-04T12:47:47.587Z,1.62
2019-04-04T12:50:18.942Z,1.30
2019-04-04T12:52:50.351Z,1.37
2019-04-04T12:55:21.637Z,1.10
2019-04-04T12:57:54.049Z,1.47
2019-04-04T13:00:25.409Z,1.45
2019-04-04T13:02:59.604Z,1.70
2019-04-04T13:05:30.820Z,1.10
2019-04-04T13:08:02.157Z,0.98
2019-04-04T13:10:34.453Z,2.05
2019-04-04T13:13:05.938Z,1.25
2019-04-04T13:15:37.176Z,0.90
2019-04-04T13:18:08.639Z,3.33
2019-04-04T13:20:41.571Z,1.85
2019-04-04T13:23:12.914Z,1.35
2019-04-04T13:25:47.251Z,1.30
2019-04-04T13:28:18.707Z,1.02
2019-04-04T13:30:51.052Z,1.37
2019-04-04T13:33:41.329Z,1.40
2019-04-04T13:36:13.497Z,1.10
2019-04-04T13:38:44.823Z,1.05
2019-04-04T13:41:22.218Z,0.82
2019-04-04T13:43:53.708Z,0.88
2019-04-04T13:46:28.080Z,0.65
2019-04-04T13:49:00.376Z,1.52
2019-04-04T13:51:34.850Z,0.70
2019-04-04T13:56:44.706Z,1.40
2019-04-04T13:59:15.976Z,0.90
2019-04-04T14:01:47.457Z,1.27
2019-04-04T14:04:20.296Z,1.02
2019-04-04T14:06:53.622Z,1.10
2019-04-04T14:09:24.957Z,1.00
2019-04-04T14:11:56.366Z,1.10
2019-04-04T14:14:27.665Z,1.17
2019-04-04T14:16:58.922Z,1.20
2019-04-04T14:19:31.641Z,1.10
2019-04-04T14:22:03.166Z,1.17
2019-04-04T14:24:34.582Z,1.82
2019-04-04T14:27:06.058Z,2.12
2019-04-04T14:29:37.561Z,1.37
2019-04-04T14:32:10.018Z,2.17
2019-04-04T14:34:43.387Z,1.50
2019-04-04T14:37:14.889Z,1.98
2019-04-04T14:39:49.231Z,1.60
2019-04-04T14:42:20.443Z,3.02
2019-04-04T14:44:51.710Z,4.08
2019-04-04T14:47:26.330Z,3.77
2019-04-04T14:49:58.857Z,1.17
2019-04-04T14:52:30.123Z,3.85
2019-04-04T14:55:01.426Z,2.27
2019-04-04T14:57:32.690Z,2.33
2019-04-04T15:00:06.851Z,5.97
2019-04-04T15:02:38.221Z,1.98
2019-04-04T15:05:09.676Z,2.67
2019-04-04T15:07:41.000Z,3.60
2019-04-04T15:10:17.343Z,1.07
2019-04-04T15:12:53.172Z,1.42
2019-04-04T15:15:26.265Z,1.77
2019-04-04T15:17:57.637Z,0.95
2019-04-04T15:20:29.088Z,1.40
2019-04-04T15:23:00.675Z,1.55
2019-04-04T15:25:33.971Z,1.72
2019-04-04T15:28:05.396Z,2.27
2019-04-04T15:30:36.805Z,2.05
2019-04-04T15:33:11.036Z,3.75
2019-04-04T15:35:42.454Z,2.37
2019-04-04T15:38:16.804Z,1.55
2019-04-04T15:40:51.377Z,2.33
2019-04-04T15:43:22.771Z,1.40
2019-04-04T15:45:55.824Z,1.77
2019-04-04T15:48:30.269Z,1.70
2019-04-04T15:51:05.977Z,2.00
2019-04-04T15:53:37.257Z,2.23
2019-04-04T15:56:10.977Z,1.77
2019-04-04T15:58:42.333Z,1.70
2019-04-04T16:01:18.379Z,3.70
2019-04-04T16:04:07.949Z,2.52
2019-04-04T16:06:41.025Z,3.45
2019-04-04T16:09:15.288Z,2.20
2019-04-04T16:11:49.681Z,2.55
2019-04-04T16:14:20.288Z,2.62
2019-04-04T16:16:52.123Z,1.90
2019-04-04T16:19:28.140Z,2.52
2019-04-04T16:22:01.259Z,2.02
2019-04-04T16:24:35.185Z,1.82
2019-04-04T16:27:09.344Z,2.05
2019-04-04T16:29:40.705Z,2.22
2019-04-04T16:32:11.993Z,2.40
2019-04-04T16:34:44.924Z,3.00
2019-04-04T16:37:16.396Z,2.52
2019-04-04T16:39:47.597Z,1.70
2019-04-04T16:42:18.926Z,2.05
2019-04-04T16:44:50.151Z,1.70
2019-04-04T16:47:21.474Z,2.67
2019-04-04T16:49:52.755Z,6.78
2019-04-04T16:52:24.102Z,2.62
2019-04-04T16:55:01.505Z,6.87
2019-04-04T16:57:43.475Z,4.30
2019-04-04T17:00:17.203Z,3.20
2019-04-04T17:02:48.689Z,2.50
2019-04-04T17:05:20.160Z,2.70
2019-04-04T17:07:51.441Z,1.62
2019-04-04T17:10:22.872Z,1.67
2019-04-04T17:12:55.187Z,2.02
2019-04-04T17:15:26.553Z,2.30
2019-04-04T17:17:58.020Z,3.80
2019-04-04T17:20:29.561Z,1.90
2019-04-04T17:23:01.137Z,2.33
2019-04-04T17:25:32.521Z,2.72
2019-04-04T17:28:04.572Z,2.27
2019-04-04T17:30:38.115Z,2.50
2019-04-04T17:33:09.583Z,2.80
2019-04-04T17:35:40.912Z,2.75
2019-04-04T17:38:12.343Z,2.70
2019-04-04T17:40:43.622Z,2.87
2019-04-04T17:43:15.191Z,3.52
2019-04-04T17:45:46.565Z,3.25
2019-04-04T17:48:17.867Z,4.13
2019-04-04T17:50:49.389Z,3.52
2019-04-04T17:53:22.088Z,2.52
2019-04-04T17:55:55.442Z,3.25
2019-04-04T17:58:27.726Z,2.33
2019-04-04T18:00:59.108Z,3.00
2019-04-04T18:03:30.488Z,2.70
2019-04-04T18:06:01.799Z,2.40
2019-04-04T18:08:34.289Z,2.85
2019-04-04T18:11:05.716Z,2.60
2019-04-04T18:13:44.698Z,3.15
2019-04-04T18:16:27.822Z,3.00
2019-04-04T18:18:58.491Z,2.92
2019-04-04T18:21:33.068Z,3.55
2019-04-04T18:24:06.408Z,3.00
2019-04-04T18:26:39.023Z,2.67
2019-04-04T18:29:10.487Z,2.45
2019-04-04T18:31:41.862Z,2.85
2019-04-04T18:34:17.210Z,2.90
2019-04-04T18:36:49.748Z,3.15
2019-04-04T18:39:21.807Z,3.02
2019-04-04T18:41:53.281Z,3.95
2019-04-04T18:44:24.715Z,3.77
2019-04-04T18:46:56.609Z,2.65
2019-04-04T18:49:28.496Z,2.80
2019-04-04T18:52:01.646Z,2.55
2019-04-04T18:54:35.143Z,2.40
2019-04-04T18:57:06.585Z,3.35
2019-04-04T18:59:38.535Z,3.58
2019-04-04T19:02:10.054Z,4.40
2019-04-04T19:04:41.422Z,3.60
2019-04-04T19:07:12.847Z,4.58
2019-04-04T19:09:44.332Z,4.67
2019-04-04T19:12:15.933Z,4.10
2019-04-04T19:14:47.269Z,3.60
2019-04-04T19:17:18.529Z,3.05
2019-04-04T19:20:13.827Z,3.20
2019-04-04T19:22:45.221Z,3.35
2019-04-04T19:25:16.847Z,3.72
2019-04-04T19:27:48.340Z,3.60
2019-04-04T19:30:20.312Z,4.28
2019-04-04T19:32:51.727Z,4.37
2019-04-04T19:35:23.342Z,3.17
2019-04-04T19:38:00.386Z,4.37
2019-04-04T19:40:29.243Z,3.33
2019-04-04T19:43:20.586Z,3.00
2019-04-04T19:45:52.099Z,3.47
2019-04-04T19:48:23.544Z,3.02
2019-04-04T19:50:55.012Z,4.10
2019-04-04T19:53:26.521Z,3.85
2019-04-04T19:55:58.101Z,4.45
2019-04-04T19:58:29.435Z,3.37
2019-04-04T20:01:01.005Z,3.15
2019-04-04T20:03:32.581Z,3.92
2019-04-04T20:06:04.982Z,3.00
2019-04-04T20:08:36.483Z,2.90
2019-04-04T20:11:07.872Z,2.90
2019-04-04T20:13:39.803Z,3.40
2019-04-04T20:16:12.430Z,3.60
2019-04-04T20:18:44.112Z,3.77
2019-04-04T20:21:15.801Z,4.03
2019-04-04T20:23:47.097Z,4.47
2019-04-04T20:26:19.488Z,4.80
2019-04-04T20:28:50.879Z,5.47
2019-04-04T20:31:22.393Z,4.47
2019-04-04T20:34:01.552Z,4.10
2019-04-04T20:36:26.853Z,3.87
2019-04-04T20:38:58.115Z,4.67
2019-04-04T20:41:31.337Z,4.60
2019-04-04T20:44:02.810Z,5.83
2019-04-04T20:46:34.135Z,5.40
2019-04-04T20:49:05.585Z,6.25
2019-04-04T20:51:36.975Z,6.08
2019-04-04T20:54:08.294Z,5.90
2019-04-04T20:56:39.601Z,5.87
2019-04-04T20:59:10.906Z,6.28
2019-04-04T21:01:42.334Z,5.15
2019-04-04T21:04:13.813Z,5.28
2019-04-04T21:06:45.194Z,4.93
2019-04-04T21:09:16.491Z,6.65
2019-04-04T21:11:47.886Z,4.95
2019-04-04T21:14:19.288Z,6.08
2019-04-04T21:16:50.787Z,6.23
2019-04-04T21:19:22.129Z,6.30
2019-04-04T21:21:53.489Z,5.47
2019-04-04T21:24:24.840Z,5.45
2019-04-04T21:26:57.517Z,6.00
2019-04-04T21:29:28.892Z,5.40
2019-04-04T21:32:00.231Z,6.10
2019-04-04T21:34:31.650Z,6.60
2019-04-04T21:37:02.937Z,7.45
2019-04-04T21:39:34.254Z,6.77
2019-04-04T21:42:05.974Z,7.35
2019-04-04T21:44:37.333Z,7.92
2019-04-04T21:47:08.608Z,8.30
2019-04-04T21:49:39.864Z,8.13
2019-04-04T21:52:11.101Z,8.28
2019-04-04T21:54:42.388Z,6.70
2019-04-04T21:57:14.754Z,8.60
2019-04-04T21:59:46.106Z,7.83
2019-04-04T22:02:17.814Z,8.08
2019-04-04T22:04:49.096Z,8.85
2019-04-04T22:07:20.510Z,8.45
2019-04-04T22:09:51.859Z,9.35
2019-04-04T22:12:23.265Z,7.95
2019-04-04T22:14:54.486Z,9.93
2019-04-04T22:17:25.813Z,9.83
2019-04-04T22:19:57.061Z,11.43
2019-04-04T22:22:28.446Z,13.60
2019-04-04T22:24:59.704Z,13.90
2019-04-04T22:27:31.121Z,16.07
2019-04-04T22:30:02.365Z,14.90
2019-04-04T22:32:33.864Z,16.80
2019-04-04T22:35:07.108Z,14.60
2019-04-04T22:37:38.454Z,16.17
2019-04-04T22:40:09.766Z,16.70
2019-04-04T22:42:41.275Z,15.30
2019-04-04T22:45:13.671Z,16.53
2019-04-04T22:47:45.069Z,16.05
2019-04-04T22:50:16.431Z,15.10
2019-04-04T22:52:49.069Z,16.63
2019-04-04T22:55:20.462Z,14.10
2019-04-04T22:57:51.738Z,12.15
2019-04-04T23:00:23.037Z,12.85
2019-04-04T23:02:54.463Z,12.37
2019-04-04T23:05:25.769Z,11.48
2019-04-04T23:07:57.201Z,13.43
2019-04-04T23:10:28.506Z,14.10
2019-04-04T23:12:59.793Z,12.43
2019-04-04T23:15:31.113Z,12.60
2019-04-04T23:18:02.460Z,13.45
2019-04-04T23:20:33.792Z,10.50
2019-04-04T23:23:05.153Z,12.27
2019-04-04T23:25:36.459Z,11.73
2019-04-04T23:28:08.195Z,10.63
2019-04-04T23:30:39.492Z,10.65
2019-04-04T23:33:10.837Z,10.80
2019-04-04T23:35:42.046Z,10.93
2019-04-04T23:38:13.457Z,10.68
2019-04-04T23:40:44.684Z,13.68
2019-04-04T23:43:16.025Z,12.00
2019-04-04T23:45:47.261Z,11.35
2019-04-04T23:48:18.611Z,13.88
2019-04-04T23:50:49.843Z,12.98
2019-04-04T23:53:22.121Z,12.82
2019-04-04T23:55:53.450Z,13.55
2019-04-04T23:58:24.808Z,12.37
